Time;durP1;ratioP1;P1;durP2;ratioP2;P2;SDS_P1;SDS_P2;PMS_P1;PMS_P2;Temp;Humidity;BMP_temperature;BMP_pressure;BME280_temperature;BME280_humidity;BME280_pressure;Samples;Min_cycle;Max_cycle;Signal;HPM_P1;HPM_P2
2022/10/07 00:01:02;;;;;;;9.38;5.90;;;;;;;18.93;57.35;101242.09;5388751;26;34019;-81
2022/10/07 00:03:30;;;;;;;7.50;5.20;;;;;;;19.57;55.66;101252.91;5388249;26;33837;-81
2022/10/07 00:06:03;;;;;;;9.32;4.95;;;;;;;20.43;53.04;101242.31;5388679;26;33578;-81
2022/10/07 00:08:31;;;;;;;10.57;5.35;;;;;;;18.36;58.24;101247.06;5388481;26;33389;-81
2022/10/07 00:11:08;;;;;;;10.70;5.75;;;;;;;17.23;62.90;101252.28;5389052;26;33882;-81
2022/10/07 00:13:37;;;;;;;9.18;5.20;;;;;;;17.14;63.82;101246.69;5350448;26;33997;-81
2022/10/07 00:16:11;;;;;;;10.23;5.50;;;;;;;16.62;65.26;101246.22;5388428;26;34247;-81
2022/10/07 00:18:40;;;;;;;9.57;5.35;;;;;;;17.49;62.82;101241.13;5389154;26;33581;-81
2022/10/07 00:21:12;;;;;;;8.82;5.55;;;;;;;17.53;62.30;101238.66;5388159;26;34558;-81
2022/10/07 00:23:42;;;;;;;11.50;5.93;;;;;;;17.47;62.15;101240.19;5369049;26;34565;-81
2022/10/07 00:26:12;;;;;;;10.77;5.60;;;;;;;17.15;62.84;101243.22;5389186;26;33788;-81
2022/10/07 00:28:41;;;;;;;9.68;6.50;;;;;;;17.73;61.40;101236.78;5390181;26;33330;-81
2022/10/07 00:31:15;;;;;;;9.20;5.65;;;;;;;17.81;60.74;101244.13;5389602;26;33932;-81
2022/10/07 00:33:43;;;;;;;10.50;5.65;;;;;;;18.11;59.91;101237.41;5369447;26;33666;-81
2022/10/07 00:36:18;;;;;;;12.77;5.70;;;;;;;18.79;57.75;101230.19;5389770;26;33831;-81
2022/10/07 00:38:50;;;;;;;9.10;4.97;;;;;;;18.23;58.95;101230.88;5389797;26;34222;-81
2022/10/07 00:41:20;;;;;;;12.18;5.53;;;;;;;18.57;57.92;101224.19;5390232;26;34769;-81
2022/10/07 00:43:48;;;;;;;12.23;5.57;;;;;;;18.57;57.73;101229.44;5369318;26;33126;-81
2022/10/07 00:46:30;;;;;;;10.43;5.57;;;;;;;17.86;59.92;101226.87;5389861;26;33536;-81
2022/10/07 00:49:01;;;;;;;8.65;5.25;;;;;;;17.51;61.54;101232.47;5370104;26;33509;-81
2022/10/07 00:51:30;;;;;;;10.48;5.62;;;;;;;18.08;59.57;101223.34;5369640;26;33973;-81
2022/10/07 00:53:58;;;;;;;11.02;5.87;;;;;;;17.59;60.04;101233.66;5389583;26;33980;-81
2022/10/07 00:56:26;;;;;;;11.15;6.28;;;;;;;15.87;66.02;101230.69;5369389;26;33830;-81
2022/10/07 00:58:55;;;;;;;9.63;6.22;;;;;;;14.47;72.25;101235.97;5389621;26;33511;-81
2022/10/07 01:01:23;;;;;;;11.93;6.70;;;;;;;14.18;74.49;101237.94;5389790;26;33920;-81
2022/10/07 01:03:51;;;;;;;11.48;7.43;;;;;;;13.32;78.99;101233.22;5389558;26;34037;-81
2022/10/07 01:06:18;;;;;;;11.65;7.85;;;;;;;12.96;81.28;101232.84;5369552;26;33980;-81
2022/10/07 01:08:48;;;;;;;12.23;7.72;;;;;;;13.33;80.95;101228.09;5389790;26;33497;-81
2022/10/07 01:11:26;;;;;;;12.10;7.20;;;;;;;13.37;80.95;101226.56;5389785;26;34422;-81
2022/10/07 01:14:09;;;;;;;13.48;7.57;;;;;;;14.06;77.42;101226.84;5369640;26;34285;-81
2022/10/07 01:16:52;;;;;;;11.88;7.03;;;;;;;14.07;77.87;101228.62;5369757;26;33813;-81
2022/10/07 01:19:44;;;;;;;11.02;5.95;;;;;;;15.62;71.81;101222.50;5369343;26;33592;-81
2022/10/07 01:22:18;;;;;;;9.00;5.78;;;;;;;17.32;64.38;101225.59;5369394;26;33984;-81
2022/10/07 01:25:05;;;;;;;10.98;6.00;;;;;;;16.49;64.64;101217.75;5389594;26;34014;-81
2022/10/07 01:27:34;;;;;;;10.68;6.07;;;;;;;15.94;65.76;101231.00;5389677;26;33540;-82
2022/10/07 01:30:04;;;;;;;11.30;6.45;;;;;;;16.46;64.43;101222.88;5370012;26;32982;-81
2022/10/07 01:32:43;;;;;;;11.27;6.25;;;;;;;16.03;65.52;101226.16;5350782;26;33886;-81
2022/10/07 01:35:14;;;;;;;12.10;6.97;;;;;;;16.10;65.62;101228.25;5369885;26;33675;-81
2022/10/07 01:37:45;;;;;;;10.27;6.45;;;;;;;15.88;67.12;101219.44;5389548;26;33967;-81
2022/10/07 01:40:18;;;;;;;9.43;6.30;;;;;;;15.21;69.13;101226.66;5369984;26;32991;-81
2022/10/07 01:42:47;;;;;;;11.57;7.15;;;;;;;15.83;67.51;101218.31;5369755;26;33788;-81
2022/10/07 01:45:20;;;;;;;12.15;6.50;;;;;;;16.17;66.20;101218.94;5369993;26;34885;-81
2022/10/07 01:47:48;;;;;;;9.48;6.00;;;;;;;15.49;68.27;101221.94;5370362;26;33675;-81
2022/10/07 01:50:17;;;;;;;9.20;6.47;;;;;;;15.05;69.24;101219.78;5389360;26;34068;-81
2022/10/07 01:52:51;;;;;;;10.30;6.07;;;;;;;15.50;67.47;101223.72;5369871;26;33055;-81
2022/10/07 01:55:31;;;;;;;9.98;5.60;;;;;;;15.93;65.81;101224.84;5390209;26;33761;-81
2022/10/07 01:58:26;;;;;;;11.30;6.93;;;;;;;16.46;63.57;101212.41;5389932;26;33925;-81
2022/10/07 02:01:05;;;;;;;10.25;6.37;;;;;;;15.97;64.94;101228.50;5370077;26;33680;-81
2022/10/07 02:04:11;;;;;;;10.90;6.78;;;;;;;14.73;69.06;101211.25;5369422;26;33980;-81
2022/10/07 02:06:49;;;;;;;11.27;6.78;;;;;;;14.04;72.26;101223.25;5389382;26;32809;-81
2022/10/07 02:09:27;;;;;;;10.73;6.78;;;;;;;14.82;69.46;101214.31;5369842;26;33919;-81
2022/10/07 02:12:23;;;;;;;11.55;6.18;;;;;;;15.37;67.85;101220.44;5389729;26;34220;-81
2022/10/07 02:14:58;;;;;;;9.57;6.32;;;;;;;15.62;67.02;101223.37;5389767;26;32822;-81
2022/10/07 02:17:26;;;;;;;9.70;6.05;;;;;;;16.17;64.76;101229.41;5369747;26;33733;-81
2022/10/07 02:19:55;;;;;;;10.02;5.72;;;;;;;16.14;64.01;101222.31;5369861;26;33825;-81
2022/10/07 02:22:25;;;;;;;10.15;5.40;;;;;;;16.57;62.32;101224.19;5389590;26;33222;-81
2022/10/07 02:24:57;;;;;;;9.07;6.03;;;;;;;17.27;59.72;101218.44;5369514;26;32988;-81
2022/10/07 02:27:28;;;;;;;9.90;5.37;;;;;;;17.40;58.87;101214.59;5370656;26;34278;-81
2022/10/07 02:30:01;;;;;;;12.55;6.12;;;;;;;17.66;57.87;101212.09;5369346;26;33885;-81
2022/10/07 02:32:30;;;;;;;10.40;6.13;;;;;;;16.90;59.41;101209.09;5389050;26;33328;-81
2022/10/07 02:35:02;;;;;;;9.68;6.25;;;;;;;16.48;60.84;101205.50;5350736;26;32353;-81
2022/10/07 02:37:34;;;;;;;14.55;6.18;;;;;;;15.97;63.16;101215.44;5370493;26;34649;-81
2022/10/07 02:40:03;;;;;;;11.35;6.30;;;;;;;16.43;61.77;101207.03;5369517;26;32331;-81
2022/10/07 02:42:58;;;;;;;9.98;6.12;;;;;;;16.18;62.26;101210.28;5389624;26;34206;-82
2022/10/07 02:45:39;;;;;;;11.32;6.10;;;;;;;15.70;63.92;101215.91;5369655;26;33973;-81
2022/10/07 02:48:19;;;;;;;9.98;6.35;;;;;;;15.39;64.70;101211.84;5369586;26;33974;-81
2022/10/07 02:50:48;;;;;;;11.52;6.53;;;;;;;15.86;63.56;101213.25;5369822;26;34149;-81
2022/10/07 02:53:18;;;;;;;12.95;7.12;;;;;;;16.34;61.65;101204.00;5369194;26;34372;-81
2022/10/07 02:55:47;;;;;;;10.32;6.22;;;;;;;16.36;61.24;101204.97;5369544;26;33969;-81
2022/10/07 02:58:16;;;;;;;10.75;5.82;;;;;;;16.35;61.29;101208.41;5369153;26;33743;-81
2022/10/07 03:00:47;;;;;;;11.05;6.10;;;;;;;16.39;60.92;101207.72;5369780;26;34179;-81
2022/10/07 03:03:14;;;;;;;11.40;6.45;;;;;;;15.78;62.80;101204.16;5369979;26;33076;-81
2022/10/07 03:05:43;;;;;;;10.80;6.07;;;;;;;14.68;67.59;101207.50;5369682;26;34086;-81
2022/10/07 03:08:11;;;;;;;10.80;5.72;;;;;;;15.03;66.29;101198.84;5350978;26;33723;-81
2022/10/07 03:10:39;;;;;;;14.73;6.47;;;;;;;14.67;67.39;101204.00;5389153;26;33944;-81
2022/10/07 03:13:07;;;;;;;10.85;5.72;;;;;;;15.40;65.09;101205.81;5350879;26;31909;-81
2022/10/07 03:15:37;;;;;;;10.18;6.22;;;;;;;15.85;63.37;101206.22;5389136;26;33814;-81
2022/10/07 03:18:24;;;;;;;10.13;6.30;;;;;;;15.64;63.57;101205.19;5389889;26;34128;-81
2022/10/07 03:20:55;;;;;;;11.10;6.47;;;;;;;15.62;63.33;101201.59;5389695;26;34370;-81
2022/10/07 03:23:23;;;;;;;10.23;5.93;;;;;;;15.07;65.23;101200.78;5389100;26;33380;-81
2022/10/07 03:25:52;;;;;;;8.20;5.93;;;;;;;15.64;63.57;101205.19;5389293;26;33983;-81
2022/10/07 03:28:21;;;;;;;10.73;6.28;;;;;;;16.15;62.15;101192.75;5369380;26;33635;-81
2022/10/07 03:30:50;;;;;;;10.25;6.07;;;;;;;16.16;61.86;101186.69;5389266;26;34363;-81
2022/10/07 03:33:20;;;;;;;11.65;6.32;;;;;;;15.11;65.21;101197.47;5389136;26;33537;-81
2022/10/07 03:35:47;;;;;;;11.02;6.22;;;;;;;14.81;66.81;101201.19;5388030;26;34312;-81
2022/10/07 03:38:15;;;;;;;12.13;6.62;;;;;;;15.50;64.35;101210.66;5367846;26;33455;-81
2022/10/07 03:40:43;;;;;;;11.15;6.78;;;;;;;15.49;64.16;101206.28;5389164;26;33850;-81
2022/10/07 03:43:11;;;;;;;9.57;5.82;;;;;;;15.14;64.18;101202.87;5388417;26;34377;-81
2022/10/07 03:45:43;;;;;;;12.15;6.40;;;;;;;13.64;69.37;101200.28;5388665;26;34553;-81
2022/10/07 03:48:11;;;;;;;14.18;7.50;;;;;;;12.71;74.62;101201.91;5384523;26;33934;-81
2022/10/07 03:50:39;;;;;;;11.50;7.28;;;;;;;13.36;73.27;101201.34;5388961;26;33787;-81
2022/10/07 03:53:07;;;;;;;11.30;6.97;;;;;;;14.74;68.20;101200.88;5388823;26;33270;-81
2022/10/07 03:55:35;;;;;;;11.55;6.55;;;;;;;15.15;66.50;101195.91;5369179;26;34231;-81
2022/10/07 03:58:03;;;;;;;9.70;5.72;;;;;;;15.80;64.09;101192.06;5388910;26;33935;-81
2022/10/07 04:00:30;;;;;;;12.55;6.47;;;;;;;17.15;58.53;101185.63;5369330;26;33865;-81
2022/10/07 04:02:58;;;;;;;11.32;6.32;;;;;;;17.04;58.62;101186.09;5370144;26;33324;-81
2022/10/07 04:05:26;;;;;;;12.75;6.93;;;;;;;17.04;58.25;101183.47;5370438;26;33843;-81
2022/10/07 04:07:54;;;;;;;11.85;7.12;;;;;;;16.61;58.79;101186.00;5369981;26;33704;-81
2022/10/07 04:10:23;;;;;;;15.35;6.47;;;;;;;15.85;60.82;101187.91;5390382;26;34050;-81
2022/10/07 04:12:51;;;;;;;12.52;7.22;;;;;;;15.22;62.13;101186.66;5390042;26;33044;-81
2022/10/07 04:15:19;;;;;;;11.60;6.57;;;;;;;15.17;62.69;101182.94;5390049;26;33747;-82
2022/10/07 04:17:47;;;;;;;12.32;6.80;;;;;;;15.27;62.39;101193.00;5389765;26;33720;-81
2022/10/07 04:20:16;;;;;;;11.50;7.15;;;;;;;15.68;61.22;101186.22;5389910;26;33386;-81
2022/10/07 04:22:44;;;;;;;13.02;7.43;;;;;;;15.35;61.93;101175.97;5389884;26;33677;-81
2022/10/07 04:28:05;;;;;;;12.65;7.60;;;;;;;15.36;62.72;101177.78;5390124;26;33717;-81
2022/10/07 04:30:38;;;;;;;13.77;8.07;;;;;;;15.18;63.37;101177.78;5350886;26;34238;-81
2022/10/07 04:33:07;;;;;;;16.60;8.60;;;;;;;14.69;65.25;101178.88;5389298;26;33402;-81
2022/10/07 04:35:40;;;;;;;17.27;8.98;;;;;;;14.44;66.74;101173.22;5390019;26;33726;-81
2022/10/07 04:38:09;;;;;;;13.32;7.43;;;;;;;14.33;67.46;101178.78;5390186;26;33844;-80
2022/10/07 04:40:39;;;;;;;11.85;7.75;;;;;;;14.25;67.54;101172.25;5390371;26;35291;-82
2022/10/07 04:43:25;;;;;;;14.30;7.28;;;;;;;14.69;65.96;101176.28;5389472;26;33474;-82
2022/10/07 04:46:00;;;;;;;12.02;7.03;;;;;;;16.68;59.12;101178.47;5390135;26;34286;-82
2022/10/07 04:48:28;;;;;;;;;;;;;;;17.27;56.82;101175.66;5390700;26;34334;-82
2022/10/07 04:51:04;;;;;;;14.27;7.70;;;;;;;17.36;56.34;101176.00;5390643;26;34261;-81
2022/10/07 04:53:32;;;;;;;10.75;7.00;;;;;;;17.21;56.55;101180.62;5390560;26;34015;-82
2022/10/07 04:56:00;;;;;;;9.90;6.70;;;;;;;16.86;57.04;101170.53;5389259;26;33882;-82
2022/10/07 04:58:29;;;;;;;10.93;6.68;;;;;;;17.51;55.02;101185.31;5390035;26;33499;-82
2022/10/07 05:00:59;;;;;;;10.88;6.20;;;;;;;17.67;54.37;101185.03;5388415;26;33929;-82
2022/10/07 05:03:29;;;;;;;10.80;6.85;;;;;;;16.55;57.24;101181.38;5389952;26;33530;-82
2022/10/07 05:06:04;;;;;;;15.75;7.78;;;;;;;16.26;58.04;101183.66;5351448;26;33246;-82
2022/10/07 05:08:33;;;;;;;13.55;8.02;;;;;;;15.23;61.61;101188.47;5370129;26;33943;-82
2022/10/07 05:11:02;;;;;;;13.55;8.75;;;;;;;13.77;67.17;101192.28;5388922;26;34572;-81
2022/10/07 05:13:30;;;;;;;18.62;9.00;;;;;;;14.60;65.39;101188.84;5389987;26;34280;-82
2022/10/07 05:16:00;;;;;;;14.30;8.10;;;;;;;15.00;63.82;101193.44;5370251;26;33716;-81
2022/10/07 05:18:29;;;;;;;14.43;9.32;;;;;;;16.08;60.28;101194.19;5389323;26;35696;-81
2022/10/07 05:20:57;;;;;;;14.02;9.70;;;;;;;15.66;61.98;101208.75;5389517;26;33782;-81
2022/10/07 05:23:27;;;;;;;16.58;9.30;;;;;;;15.84;61.79;101209.66;5389556;26;34287;-80
2022/10/07 05:26:00;;;;;;;15.70;8.52;;;;;;;16.98;58.04;101208.50;5389668;26;33641;-82
2022/10/07 05:28:29;;;;;;;15.63;8.95;;;;;;;18.49;52.71;101194.19;5389839;26;33683;-80
2022/10/07 05:31:04;;;;;;;15.50;8.48;;;;;;;16.24;58.47;101205.31;5388333;26;33835;-80
2022/10/07 05:33:33;;;;;;;15.93;9.00;;;;;;;15.29;62.15;101201.81;5388238;26;33226;-81
2022/10/07 05:36:03;;;;;;;16.40;8.02;;;;;;;15.57;61.54;101198.78;5369121;26;34560;-82
2022/10/07 05:38:30;;;;;;;16.40;8.48;;;;;;;15.49;62.01;101206.28;5369930;26;33825;-81
2022/10/07 05:41:00;;;;;;;16.58;8.93;;;;;;;15.82;61.51;101211.31;5388995;26;33965;-82
2022/10/07 05:43:29;;;;;;;19.08;9.93;;;;;;;15.30;63.62;101209.72;5388169;26;35134;-82
2022/10/07 05:46:02;;;;;;;17.27;10.35;;;;;;;15.39;63.89;101204.03;5369068;26;33700;-83
2022/10/07 05:48:31;;;;;;;20.50;11.27;;;;;;;14.58;67.20;101208.72;5389833;26;34485;-81
2022/10/07 05:51:06;;;;;;;15.15;9.93;;;;;;;14.83;67.12;101209.97;5389490;26;33719;-81
2022/10/07 05:53:34;;;;;;;16.77;10.73;;;;;;;14.84;66.94;101206.56;5389965;26;33460;-82
2022/10/07 05:56:09;;;;;;;16.80;10.07;;;;;;;15.07;66.37;101203.37;5389142;26;33968;-81
2022/10/07 05:58:37;;;;;;;13.62;9.43;;;;;;;16.69;60.96;101200.31;5389728;26;34470;-82
2022/10/07 06:01:07;;;;;;;26.25;9.68;;;;;;;17.27;59.12;101201.84;5390008;26;34046;-79
2022/10/07 06:03:42;;;;;;;13.27;8.38;;;;;;;18.21;56.25;101208.03;5389688;26;33332;-81
2022/10/07 06:06:09;;;;;;;18.05;9.40;;;;;;;18.30;55.82;101215.38;5389775;26;33972;-83
2022/10/07 06:08:37;;;;;;;37.95;24.37;;;;;;;18.18;56.44;101214.06;5389116;26;33832;-82
2022/10/07 06:13:53;;;;;;;35.17;20.10;;;;;;;18.52;55.43;101214.38;5372600;26;33791;-81
2022/10/07 06:16:22;;;;;;;16.80;11.32;;;;;;;17.49;58.09;101229.78;5389300;26;34694;-82
2022/10/07 06:18:53;;;;;;;22.15;12.75;;;;;;;17.97;57.25;101219.41;5389158;26;34764;-80
2022/10/07 06:21:26;;;;;;;18.35;10.73;;;;;;;18.25;56.30;101216.09;5369414;26;34021;-80
2022/10/07 06:23:57;;;;;;;17.00;9.68;;;;;;;18.54;55.70;101224.09;5389465;26;33609;-80
2022/10/07 06:26:25;;;;;;;14.13;9.70;;;;;;;18.02;57.51;101222.19;5389316;26;34771;-82
2022/10/07 06:28:53;;;;;;;16.45;9.77;;;;;;;18.40;56.55;101222.72;5389255;26;33951;-82
2022/10/07 06:31:23;;;;;;;15.30;9.45;;;;;;;18.66;55.99;101208.78;5369067;26;32658;-81
2022/10/07 06:33:52;;;;;;;14.40;9.43;;;;;;;18.56;56.56;101217.19;5388846;26;33440;-80
2022/10/07 06:36:20;;;;;;;14.95;9.77;;;;;;;18.38;57.35;101211.28;5369119;26;33826;-82
2022/10/07 06:38:50;;;;;;;15.43;9.52;;;;;;;18.24;58.23;101213.41;5368948;26;34602;-80
2022/10/07 06:41:19;;;;;;;15.68;9.48;;;;;;;17.75;60.32;101217.69;5388440;26;34090;-79
2022/10/07 06:43:48;;;;;;;14.80;10.95;;;;;;;18.28;59.03;101208.31;5388661;26;33878;-85
2022/10/07 06:46:17;;;;;;;15.45;10.38;;;;;;;18.15;59.70;101203.47;5388719;26;34099;-78
2022/10/07 06:48:45;;;;;;;16.60;10.55;;;;;;;18.05;60.41;101207.47;5368794;26;36257;-81
2022/10/07 06:51:17;;;;;;;16.98;10.50;;;;;;;18.83;58.17;101200.59;5369152;26;32754;-82
2022/10/07 06:53:45;;;;;;;14.32;10.63;;;;;;;19.22;57.06;101198.41;5389141;26;33360;-81
2022/10/07 06:56:13;;;;;;;15.38;10.43;;;;;;;19.22;57.46;101205.41;5389108;26;34834;-80
2022/10/07 06:58:44;;;;;;;15.93;10.65;;;;;;;19.60;56.59;101203.94;5388985;26;33770;-83
2022/10/07 07:01:13;;;;;;;16.08;10.45;;;;;;;19.75;56.34;101203.56;5369483;26;33324;-78
2022/10/07 07:03:41;;;;;;;13.23;10.43;;;;;;;20.01;55.72;101200.78;5389333;26;34563;-79
2022/10/07 07:06:09;;;;;;;16.10;10.88;;;;;;;20.03;55.82;101199.13;5388917;26;34555;-84
2022/10/07 07:08:39;;;;;;;17.90;10.55;;;;;;;20.14;55.61;101200.28;5389096;26;33970;-80
2022/10/07 07:13:57;;;;;;;13.23;9.25;;;;;;;20.95;53.79;101204.22;5389017;26;33236;-82
2022/10/07 07:16:25;;;;;;;16.17;10.73;;;;;;;21.14;53.34;101202.03;5388892;26;33853;-79
2022/10/07 07:18:54;;;;;;;13.70;9.65;;;;;;;20.66;54.56;101195.56;5388919;26;34771;-77
2022/10/07 07:21:24;;;;;;;16.58;9.70;;;;;;;20.95;54.08;101193.66;5389441;26;33832;-86
2022/10/07 07:23:52;;;;;;;12.52;10.20;;;;;;;21.09;53.35;101199.28;5388863;26;34056;-82
2022/10/07 07:26:20;;;;;;;15.15;10.15;;;;;;;20.79;54.53;101194.16;5388912;26;33709;-84
2022/10/07 07:28:52;;;;;;;13.32;9.95;;;;;;;20.92;53.97;101198.88;5389035;26;33659;-78
2022/10/07 07:31:20;;;;;;;13.73;9.82;;;;;;;21.12;53.64;101198.47;5388735;26;33772;-78
2022/10/07 07:33:51;;;;;;;14.20;10.52;;;;;;;21.35;53.16;101191.12;5388920;26;34307;-81
2022/10/07 07:36:21;;;;;;;48.22;31.98;;;;;;;21.28;53.86;101197.97;5388683;26;33947;-82
2022/10/07 07:38:54;;;;;;;18.60;11.63;;;;;;;20.95;54.83;101196.31;5369559;26;32452;-80
2022/10/07 07:41:28;;;;;;;17.55;9.60;;;;;;;21.05;54.64;101201.81;5389532;26;34113;-77
2022/10/07 07:43:59;;;;;;;13.60;9.93;;;;;;;21.58;53.71;101194.31;5389720;26;33219;-82
2022/10/07 07:46:31;;;;;;;11.52;9.10;;;;;;;21.47;54.11;101190.53;5389791;26;33614;-84
2022/10/07 07:48:59;;;;;;;14.13;9.18;;;;;;;21.65;53.82;101190.03;5389577;26;34851;-77
2022/10/07 07:51:27;;;;;;;14.98;9.35;;;;;;;21.51;54.45;101187.09;5389370;26;34354;-84
2022/10/07 07:53:54;;;;;;;13.60;9.68;;;;;;;22.31;52.03;101188.75;5389128;26;33693;-83
2022/10/07 07:56:22;;;;;;;14.45;9.35;;;;;;;22.14;52.70;101189.31;5369316;26;33465;-80
2022/10/07 07:58:50;;;;;;;12.20;8.75;;;;;;;22.53;51.20;101187.41;5389079;26;33850;-81
2022/10/07 08:01:17;;;;;;;17.52;13.90;;;;;;;22.62;50.69;101181.41;5389366;26;33919;-80
2022/10/07 08:03:46;;;;;;;13.50;9.35;;;;;;;22.78;49.97;101188.75;5388656;26;34161;-82
2022/10/07 08:06:17;;;;;;;14.27;9.18;;;;;;;23.23;49.08;101184.19;5388732;26;34155;-80
2022/10/07 08:08:46;;;;;;;12.13;8.20;;;;;;;22.84;49.86;101180.91;5387282;26;33769;-81
2022/10/07 08:11:16;;;;;;;10.18;8.40;;;;;;;22.86;49.84;101178.31;5387602;26;33821;-85
2022/10/07 08:13:44;;;;;;;12.60;8.52;;;;;;;22.96;49.48;101175.81;5368537;26;31849;-84
2022/10/07 08:16:15;;;;;;;12.00;7.93;;;;;;;22.48;50.51;101175.87;5369221;26;33525;-81
2022/10/07 08:18:46;;;;;;;12.00;7.25;;;;;;;22.65;50.30;101168.25;5389439;26;33970;-80
2022/10/07 08:21:19;;;;;;;12.05;7.53;;;;;;;23.09;49.42;101168.13;5388374;26;34464;-80
2022/10/07 08:23:51;;;;;;;10.40;7.33;;;;;;;23.11;49.53;101164.62;5369387;26;33338;-79
2022/10/07 08:26:19;;;;;;;9.50;6.65;;;;;;;23.79;47.22;101165.59;5389555;26;34670;-77
2022/10/07 08:28:47;;;;;;;10.45;6.20;;;;;;;23.43;47.65;101171.25;5389557;26;34649;-79
2022/10/07 08:31:17;;;;;;;8.68;6.57;;;;;;;22.89;49.27;101170.41;5389383;26;33972;-81
2022/10/07 08:33:47;;;;;;;9.38;6.60;;;;;;;23.13;49.14;101168.19;5388254;26;32685;-83
2022/10/07 08:36:16;;;;;;;10.32;6.55;;;;;;;24.16;46.41;101159.84;5388406;26;33731;-81
2022/10/07 08:38:44;;;;;;;7.90;6.10;;;;;;;22.99;49.58;101163.53;5388962;26;33685;-84
2022/10/07 08:41:21;;;;;;;11.75;5.72;;;;;;;23.75;47.37;101154.03;5388832;26;33932;-83
2022/10/07 08:43:49;;;;;;;9.40;5.45;;;;;;;23.60;47.59;101153.84;5369052;26;33541;-81
2022/10/07 08:46:21;;;;;;;10.13;6.45;;;;;;;23.79;48.32;101148.84;5389020;26;33721;-85
2022/10/07 08:48:53;;;;;;;9.30;6.30;;;;;;;23.36;49.07;101149.13;5369805;26;34006;-82
2022/10/07 08:51:40;;;;;;;8.73;5.45;;;;;;;23.63;47.38;101138.03;5370134;26;34428;-81
2022/10/07 08:54:12;;;;;;;9.40;5.97;;;;;;;23.23;48.86;101148.06;5369836;26;33604;-82
2022/10/07 08:56:41;;;;;;;8.90;5.30;;;;;;;24.14;46.29;101142.19;5370188;26;33736;-82
2022/10/07 08:59:16;;;;;;;14.35;5.80;;;;;;;24.05;46.96;101134.16;5389545;26;34546;-84
2022/10/07 09:01:57;;;;;;;9.70;5.78;;;;;;;23.90;47.48;101139.28;5389706;26;33676;-81
2022/10/07 09:04:40;;;;;;;24.40;6.50;;;;;;;24.77;45.23;101135.72;5351284;26;32825;-80
2022/10/07 09:07:12;;;;;;;10.25;5.45;;;;;;;24.72;45.34;101130.38;5389875;26;34546;-83
2022/10/07 09:09:44;;;;;;;13.85;6.07;;;;;;;24.64;45.74;101126.78;5370333;26;33950;-81
2022/10/07 09:12:21;;;;;;;9.35;6.47;;;;;;;24.99;45.21;101128.81;5370036;26;34068;-81
2022/10/07 09:14:51;;;;;;;11.02;5.90;;;;;;;25.10;44.85;101127.12;5370040;26;33208;-80
2022/10/07 09:17:23;;;;;;;8.70;6.15;;;;;;;25.39;43.87;101118.47;5369886;26;34001;-82
2022/10/07 09:19:54;;;;;;;9.75;5.85;;;;;;;24.41;46.10;101122.13;5369603;26;33850;-82
2022/10/07 09:22:30;;;;;;;10.93;6.90;;;;;;;24.82;45.15;101115.44;5369872;26;34032;-80
2022/10/07 09:25:18;;;;;;;10.18;6.32;;;;;;;24.53;45.52;101113.44;5389885;26;33317;-77
2022/10/07 09:27:47;;;;;;;10.38;6.18;;;;;;;24.17;46.97;101116.62;5368944;26;33295;-81
2022/10/07 09:30:15;;;;;;;9.93;6.07;;;;;;;25.48;43.81;101121.19;5389769;26;33954;-80
2022/10/07 09:32:45;;;;;;;18.10;6.68;;;;;;;24.31;46.12;101115.00;5389547;26;34215;-81
2022/10/07 09:35:16;;;;;;;11.23;6.28;;;;;;;24.91;45.81;101100.47;5369809;26;33716;-81
2022/10/07 09:38:08;;;;;;;10.02;6.30;;;;;;;25.76;43.92;101102.69;5389119;26;33922;-80
2022/10/07 09:43:26;;;;;;;10.25;6.25;;;;;;;27.05;40.43;101103.69;5372083;26;34007;-80
2022/10/07 09:45:55;;;;;;;11.38;6.10;;;;;;;27.12;40.83;101093.94;5370030;26;33118;-80
2022/10/07 09:48:26;;;;;;;11.90;6.15;;;;;;;26.57;41.45;101094.87;5369048;26;34050;-81
2022/10/07 09:51:14;;;;;;;10.63;6.45;;;;;;;26.61;41.33;101085.16;5350858;26;32154;-80
2022/10/07 09:53:57;;;;;;;16.87;10.00;;;;;;;26.59;41.56;101087.81;5389580;26;34385;-81
2022/10/07 09:56:35;;;;;;;8.15;5.68;;;;;;;27.25;40.68;101077.09;5390151;26;33598;-81
2022/10/07 09:59:20;;;;;;;9.70;6.18;;;;;;;27.24;40.43;101072.66;5389123;26;33770;-82
2022/10/07 10:01:52;;;;;;;8.65;5.70;;;;;;;26.86;40.94;101076.25;5389364;26;34056;-81
2022/10/07 10:04:26;;;;;;;11.57;7.78;;;;;;;28.22;38.25;101065.91;5350252;26;32312;-81
2022/10/07 10:06:54;;;;;;;8.40;4.95;;;;;;;28.42;37.06;101060.41;5362449;26;33510;-82
2022/10/07 10:09:23;;;;;;;10.18;5.10;;;;;;;27.28;39.62;101060.22;5369005;26;33708;-83
2022/10/07 10:12:04;;;;;;;7.72;5.32;;;;;;;26.87;41.02;101061.22;5388888;26;33865;-82
2022/10/07 10:14:44;;;;;;;6.50;5.10;;;;;;;27.20;39.94;101054.91;5368782;26;34004;-81
2022/10/07 10:17:27;;;;;;;10.20;4.90;;;;;;;27.53;38.96;101050.34;5387340;26;33442;-80
2022/10/07 10:19:55;;;;;;;12.57;4.80;;;;;;;28.25;37.51;101049.00;5387687;26;34517;-81
2022/10/07 10:22:33;;;;;;;10.70;4.85;;;;;;;28.48;37.38;101051.47;5368653;26;34714;-79
2022/10/07 10:27:56;;;;;;;9.40;5.47;;;;;;;28.59;37.16;101043.41;5389571;26;33441;-80
2022/10/07 10:30:23;;;;;;;7.68;3.83;;;;;;;28.87;36.05;101037.78;5370228;26;34066;-82
2022/10/07 10:33:13;;;;;;;7.78;3.90;;;;;;;28.89;36.73;101035.97;5350646;26;32467;-81
2022/10/07 10:36:15;;;;;;;9.75;4.22;;;;;;;29.19;35.51;101035.66;5369112;26;34634;-82
2022/10/07 10:38:50;;;;;;;11.02;4.10;;;;;;;28.19;37.50;101028.62;5369077;26;31862;-79
2022/10/07 10:41:23;;;;;;;6.35;3.92;;;;;;;28.51;36.61;101023.91;5370260;26;34768;-80
2022/10/07 10:44:18;;;;;;;7.78;4.15;;;;;;;28.82;36.03;101028.06;5389579;26;33943;-80
2022/10/07 10:47:19;;;;;;;7.53;3.90;;;;;;;29.86;34.54;101014.25;5369403;26;34103;-80
2022/10/07 10:50:09;;;;;;;6.68;3.90;;;;;;;29.71;35.06;101011.78;5351302;26;33483;-81
2022/10/07 10:52:59;;;;;;;7.80;3.90;;;;;;;30.44;34.12;101008.88;5388857;26;35157;-79
2022/10/07 10:55:38;;;;;;;18.95;4.72;;;;;;;29.78;34.78;100997.50;5369783;26;33899;-78
2022/10/07 10:58:25;;;;;;;15.48;4.30;;;;;;;29.05;36.19;100992.22;5389581;26;34593;-78
2022/10/07 11:01:19;;;;;;;26.12;5.85;;;;;;;29.40;35.08;100990.91;5389210;26;33487;-79
2022/10/07 11:04:18;;;;;;;15.30;4.87;;;;;;;29.07;36.21;100981.53;5371424;26;34019;-79
2022/10/07 11:07:08;;;;;;;15.30;4.45;;;;;;;29.31;35.68;100978.56;5389239;26;33878;-79
2022/10/07 11:09:39;;;;;;;19.25;4.78;;;;;;;29.53;34.81;100975.59;5369464;26;33861;-80
2022/10/07 11:12:22;;;;;;;7.80;3.62;;;;;;;28.44;37.35;100969.78;5368811;26;33600;-79
2022/10/07 11:14:55;;;;;;;9.02;3.90;;;;;;;29.30;35.54;100963.44;5369523;26;34730;-77
2022/10/07 11:17:29;;;;;;;6.43;3.50;;;;;;;30.02;33.71;100957.91;5369407;26;33825;-80
2022/10/07 11:20:14;;;;;;;10.07;3.67;;;;;;;30.38;33.64;100951.97;5368840;26;34939;-80
2022/10/07 11:22:52;;;;;;;5.57;3.58;;;;;;;29.35;35.04;100950.06;5387552;26;34147;-79
2022/10/07 11:25:25;;;;;;;7.25;4.28;;;;;;;29.38;34.84;100950.00;5369497;26;33964;-79
2022/10/07 11:27:54;;;;;;;7.00;4.15;;;;;;;29.84;33.99;100938.63;5350294;26;33167;-79
2022/10/07 11:30:22;;;;;;;6.07;3.65;;;;;;;30.15;33.82;100930.06;5368439;26;34724;-80
2022/10/07 11:32:58;;;;;;;11.02;4.35;;;;;;;30.25;34.39;100923.66;5388627;26;33490;-80
2022/10/07 11:35:28;;;;;;;6.50;3.87;;;;;;;30.18;34.38;100920.22;5367757;26;34635;-81
2022/10/07 11:38:14;;;;;;;12.30;3.78;;;;;;;29.72;34.13;100928.13;5388420;26;33862;-79
2022/10/07 11:40:46;;;;;;;12.50;4.68;;;;;;;29.72;34.08;100918.34;5389110;26;34559;-80
2022/10/07 11:43:24;;;;;;;11.80;4.03;;;;;;;30.93;33.01;100911.69;5349483;26;33474;-82
2022/10/07 11:45:56;;;;;;;6.95;3.70;;;;;;;30.51;32.48;100904.47;5366867;26;33777;-82
2022/10/07 11:48:38;;;;;;;7.25;3.20;;;;;;;27.92;35.94;100907.22;5369420;26;33596;-79
2022/10/07 11:51:07;;;;;;;11.65;4.05;;;;;;;29.30;35.78;100901.19;5369988;26;34507;-81
2022/10/07 11:53:37;;;;;;;28.08;6.55;;;;;;;30.26;33.46;100888.00;5387756;26;33558;-88
2022/10/07 11:56:15;;;;;;;10.85;3.30;;;;;;;29.98;34.44;100883.19;5366730;26;33973;-86
2022/10/07 11:58:44;;;;;;;24.42;4.85;;;;;;;30.07;32.96;100886.59;5389032;26;33982;-85